createdAt,value
2023-08-17T00:04:50.475Z,20.33
2023-08-17T00:11:03.129Z,18.30
2023-08-17T00:17:10.873Z,21.95
2023-08-17T00:23:17.061Z,17.00
2023-08-17T00:29:19.311Z,19.80
2023-08-17T00:35:24.778Z,25.15
2023-08-17T00:41:27.251Z,13.55
2023-08-17T00:47:33.771Z,15.48
2023-08-17T00:53:45.001Z,15.63
2023-08-17T01:00:03.149Z,31.10
2023-08-17T01:06:16.330Z,19.70
2023-08-17T01:12:29.853Z,17.20
2023-08-17T01:18:35.386Z,17.80
2023-08-17T01:24:37.890Z,21.40
2023-08-17T01:30:56.442Z,21.00
2023-08-17T01:37:10.933Z,21.48
2023-08-17T01:43:20.018Z,18.95
2023-08-17T01:49:23.964Z,23.98
2023-08-17T01:55:40.400Z,14.65
2023-08-17T02:01:50.011Z,17.15
2023-08-17T02:07:58.289Z,22.45
2023-08-17T02:14:00.969Z,23.15
2023-08-17T02:20:07.390Z,26.13
2023-08-17T02:26:09.950Z,23.33
2023-08-17T02:32:12.420Z,16.92
2023-08-17T02:38:23.981Z,19.48
2023-08-17T02:44:26.466Z,19.88
2023-08-17T02:50:37.989Z,24.83
2023-08-17T02:56:40.471Z,15.90
2023-08-17T03:02:45.032Z,30.83
2023-08-17T03:08:47.414Z,21.40
2023-08-17T03:14:51.198Z,24.20
2023-08-17T03:20:55.190Z,16.50
2023-08-17T03:27:00.023Z,29.52
2023-08-17T03:33:07.766Z,27.50
2023-08-17T03:39:15.986Z,29.58
2023-08-17T03:45:21.386Z,28.17
2023-08-17T03:51:30.197Z,25.65
2023-08-17T03:57:34.112Z,18.20
2023-08-17T04:03:52.473Z,22.33
2023-08-17T04:10:03.998Z,26.90
2023-08-17T04:16:12.003Z,20.77
2023-08-17T04:22:14.369Z,19.50
2023-08-17T04:28:25.947Z,19.90
2023-08-17T04:34:34.690Z,25.52
2023-08-17T04:40:53.205Z,27.63
2023-08-17T04:47:00.703Z,20.75
2023-08-17T04:53:08.955Z,28.67
2023-08-17T04:59:13.408Z,26.45
2023-08-17T05:05:28.018Z,27.05
2023-08-17T05:12:02.844Z,25.23
2023-08-17T05:24:50.473Z,29.63
2023-08-17T05:25:52.706Z,26.67
2023-08-17T05:32:34.396Z,24.85
2023-08-17T05:38:40.332Z,20.20
2023-08-17T05:44:56.960Z,24.10
2023-08-17T05:51:04.953Z,23.58
2023-08-17T05:57:36.004Z,18.08
2023-08-17T06:04:25.724Z,20.23
2023-08-17T06:11:17.838Z,22.23
2023-08-17T06:17:47.993Z,19.00
2023-08-17T06:24:02.356Z,21.10
2023-08-17T06:30:14.799Z,27.75
2023-08-17T06:36:36.518Z,27.55
2023-08-17T06:43:45.754Z,17.27
2023-08-17T06:49:38.246Z,16.98
2023-08-17T06:56:16.472Z,23.88
2023-08-17T07:02:51.861Z,19.23
2023-08-17T07:09:24.522Z,18.92
2023-08-17T07:15:35.292Z,15.48
2023-08-17T07:21:50.473Z,23.02
2023-08-17T07:28:02.973Z,23.08
2023-08-17T07:34:32.540Z,21.58
2023-08-17T07:40:42.375Z,18.05
2023-08-17T07:46:50.206Z,19.42
2023-08-17T07:52:54.201Z,19.70
2023-08-17T07:58:56.518Z,21.55
2023-08-17T08:04:58.988Z,16.35
2023-08-17T08:11:05.744Z,21.80
2023-08-17T08:17:07.910Z,15.40
2023-08-17T08:23:10.347Z,12.98
2023-08-17T08:29:12.837Z,11.95
2023-08-17T08:35:15.304Z,12.13
2023-08-17T08:41:22.798Z,15.10
2023-08-17T08:47:35.047Z,16.98
2023-08-17T08:54:04.879Z,12.65
2023-08-17T09:01:09.004Z,14.73
2023-08-17T09:07:08.770Z,17.85
2023-08-17T09:13:17.031Z,14.85
2023-08-17T09:19:22.885Z,13.05
2023-08-17T09:25:26.560Z,10.05
2023-08-17T09:31:33.098Z,12.93
2023-08-17T09:37:36.499Z,10.57
2023-08-17T09:43:39.016Z,12.50
2023-08-17T09:49:48.474Z,17.63
2023-08-17T09:55:50.941Z,7.22
2023-08-17T10:01:58.155Z,19.40
2023-08-17T10:08:10.143Z,9.07
2023-08-17T10:14:23.482Z,20.60
2023-08-17T10:20:35.541Z,19.05
2023-08-17T10:26:38.498Z,10.70
2023-08-17T10:33:05.777Z,5.78
2023-08-17T10:39:30.027Z,7.10
2023-08-17T10:45:41.258Z,7.18
2023-08-17T10:52:49.111Z,9.90
2023-08-17T10:59:19.612Z,10.80
2023-08-17T11:06:18.133Z,7.05
2023-08-17T11:12:34.738Z,8.27
2023-08-17T11:18:52.541Z,12.05
2023-08-17T11:24:55.760Z,10.43
2023-08-17T11:31:02.308Z,5.93
2023-08-17T11:37:08.798Z,13.10
2023-08-17T11:43:13.601Z,8.98
2023-08-17T11:49:15.716Z,9.95
2023-08-17T11:55:30.543Z,15.80
2023-08-17T12:01:46.117Z,11.27
2023-08-17T12:14:13.841Z,8.73
2023-08-17T12:20:23.365Z,7.28
2023-08-17T12:26:28.891Z,5.30
2023-08-17T12:32:31.386Z,9.60
2023-08-17T12:38:33.787Z,5.90
2023-08-17T12:44:39.486Z,7.40
2023-08-17T12:50:44.261Z,8.43
2023-08-17T12:56:46.758Z,9.32
2023-08-17T13:02:50.616Z,9.85
2023-08-17T13:08:53.131Z,11.30
2023-08-17T13:14:55.621Z,9.68
2023-08-17T13:21:00.096Z,9.60
2023-08-17T13:27:06.949Z,18.23
2023-08-17T13:33:10.842Z,9.70
2023-08-17T13:39:13.506Z,8.52
2023-08-17T13:45:18.995Z,7.95
2023-08-17T13:51:22.465Z,9.02
2023-08-17T13:57:25.937Z,11.02
2023-08-17T14:03:32.301Z,8.35
2023-08-17T14:09:34.984Z,6.45
2023-08-17T14:15:39.429Z,12.40
2023-08-17T14:21:43.977Z,10.88
2023-08-17T14:27:46.424Z,11.70
2023-08-17T14:33:52.334Z,7.00
2023-08-17T14:39:55.401Z,6.78
2023-08-17T14:46:00.941Z,9.57
2023-08-17T14:52:16.383Z,10.23
2023-08-17T14:58:20.870Z,6.07
2023-08-17T15:04:39.866Z,6.18
2023-08-17T15:10:45.098Z,8.45
2023-08-17T15:16:57.445Z,10.68
2023-08-17T15:23:00.906Z,10.57
2023-08-17T15:29:08.332Z,8.77
2023-08-17T15:35:21.043Z,10.93
2023-08-17T15:41:32.360Z,8.60
2023-08-17T15:47:37.977Z,13.43
2023-08-17T15:53:46.612Z,2.95
2023-08-17T15:59:53.259Z,6.40
2023-08-17T16:05:56.365Z,9.88
2023-08-17T16:12:15.044Z,5.75
2023-08-17T16:18:28.393Z,7.93
2023-08-17T16:24:33.863Z,8.65
2023-08-17T16:31:09.970Z,6.07
2023-08-17T16:37:16.621Z,7.75
2023-08-17T16:43:23.616Z,9.50
2023-08-17T16:49:30.764Z,16.42
2023-08-17T16:55:55.067Z,13.07
2023-08-17T17:02:17.042Z,16.83
2023-08-17T17:08:42.786Z,18.20
2023-08-17T17:14:58.123Z,20.27
2023-08-17T17:21:08.224Z,29.38
2023-08-17T17:27:13.163Z,32.63
2023-08-17T17:33:26.056Z,39.08
2023-08-17T17:39:50.129Z,54.65
2023-08-17T17:46:12.740Z,64.38
2023-08-17T17:52:27.509Z,57.88
2023-08-17T17:58:35.520Z,33.97
2023-08-17T18:04:49.200Z,17.67
2023-08-17T18:11:13.886Z,35.55
2023-08-17T18:17:55.311Z,44.10
2023-08-17T18:23:47.993Z,12.73
2023-08-17T18:30:07.867Z,17.55
2023-08-17T18:36:27.323Z,12.75
2023-08-17T18:42:42.110Z,10.40
2023-08-17T18:48:56.178Z,10.10
2023-08-17T18:55:19.692Z,4.97
2023-08-17T19:01:39.615Z,8.18
2023-08-17T19:07:50.017Z,10.88
2023-08-17T19:14:13.297Z,13.23
2023-08-17T19:20:19.723Z,14.70
2023-08-17T19:26:48.708Z,12.27
2023-08-17T19:33:17.724Z,12.80
2023-08-17T19:39:41.585Z,22.65
2023-08-17T19:46:44.716Z,10.63
2023-08-17T19:52:51.938Z,27.20
2023-08-17T19:58:57.140Z,38.08
2023-08-17T20:05:20.412Z,13.73
2023-08-17T20:12:02.318Z,18.48
2023-08-17T20:18:19.793Z,15.55
2023-08-17T20:24:39.276Z,27.23
2023-08-17T20:30:43.807Z,32.05
2023-08-17T20:37:09.019Z,20.05
2023-08-17T20:43:15.923Z,19.50
2023-08-17T20:49:30.262Z,20.20
2023-08-17T20:55:48.052Z,15.32
2023-08-17T21:01:58.516Z,12.95
2023-08-17T21:08:24.330Z,17.10
2023-08-17T21:20:54.116Z,20.15
2023-08-17T21:27:07.660Z,18.88
2023-08-17T21:33:22.697Z,28.52
2023-08-17T21:39:32.633Z,23.33
2023-08-17T21:45:35.144Z,19.90
2023-08-17T21:52:02.591Z,11.07
2023-08-17T21:58:11.284Z,11.13
2023-08-17T22:04:26.697Z,14.02
2023-08-17T22:10:32.235Z,18.55
2023-08-17T22:16:50.678Z,11.73
2023-08-17T22:22:58.736Z,10.00
2023-08-17T22:29:07.465Z,8.45
2023-08-17T22:35:34.173Z,11.27
2023-08-17T22:41:45.623Z,11.95
2023-08-17T22:47:54.160Z,13.20
2023-08-17T22:54:17.110Z,7.18
2023-08-17T23:00:27.212Z,12.13
2023-08-17T23:06:34.551Z,11.80
2023-08-17T23:12:48.633Z,11.90
2023-08-17T23:19:13.777Z,9.13
2023-08-17T23:25:19.397Z,11.23
2023-08-17T23:31:32.765Z,9.70
2023-08-17T23:37:38.498Z,8.27
2023-08-17T23:43:40.913Z,11.20
2023-08-17T23:50:02.819Z,8.60
2023-08-17T23:56:22.773Z,14.50
